createdAt,value
2017-11-05T00:00:39.582Z,95070
2017-11-05T00:06:35.408Z,95067
2017-11-05T00:12:03.553Z,95056
2017-11-05T00:17:32.459Z,95047
2017-11-05T00:23:00.860Z,95046
2017-11-05T00:28:28.995Z,95039
2017-11-05T00:33:57.154Z,95028
2017-11-05T00:39:25.325Z,95021
2017-11-05T00:44:53.503Z,95019
2017-11-05T00:50:31.749Z,95005
2017-11-05T00:56:06.161Z,94995
2017-11-05T01:01:34.295Z,94985
2017-11-05T01:07:02.630Z,94978
2017-11-05T01:12:30.985Z,94976
2017-11-05T01:17:59.928Z,94973
2017-11-05T01:23:28.876Z,94955
2017-11-05T01:35:06.372Z,94942
2017-11-05T01:40:36.819Z,94938
2017-11-05T01:51:53.609Z,94912
2017-11-05T01:57:21.759Z,94887
2017-11-05T02:02:51.069Z,94880
2017-11-05T02:08:37.193Z,94866
2017-11-05T02:20:06.584Z,94847
2017-11-05T02:25:34.933Z,94833
2017-11-05T02:31:03.116Z,94826
2017-11-05T02:36:31.251Z,94807
2017-11-05T02:42:00.163Z,94811
2017-11-05T02:47:35.068Z,94807
2017-11-05T02:53:03.997Z,94801
2017-11-05T02:58:33.229Z,94783
2017-11-05T03:04:01.364Z,94783
2017-11-05T03:09:30.272Z,94771
2017-11-05T03:14:58.409Z,94754
2017-11-05T03:20:36.253Z,94751
2017-11-05T03:26:06.566Z,94750
2017-11-05T03:31:34.702Z,94746
2017-11-05T03:37:02.842Z,94731
2017-11-05T03:42:30.970Z,94731
2017-11-05T03:48:18.187Z,94723
2017-11-05T03:53:54.375Z,94705
2017-11-05T03:59:25.592Z,94714
2017-11-05T04:05:05.345Z,94711
2017-11-05T04:10:33.509Z,94712
2017-11-05T04:16:01.617Z,94690
2017-11-05T04:21:31.250Z,94680
2017-11-05T04:27:00.159Z,94662
2017-11-05T04:32:28.305Z,94655
2017-11-05T04:37:57.244Z,94655
2017-11-05T04:43:45.475Z,94662
2017-11-05T04:49:14.459Z,94669
2017-11-05T04:54:44.327Z,94654
2017-11-05T05:00:12.517Z,94664
2017-11-05T05:05:40.648Z,94661
2017-11-05T05:11:08.786Z,94663
2017-11-05T05:17:04.913Z,94678
2017-11-05T05:22:33.065Z,94669
2017-11-05T05:28:05.192Z,94657
2017-11-05T05:33:38.688Z,94652
2017-11-05T05:39:15.785Z,94646
2017-11-05T05:44:44.012Z,94644
2017-11-05T05:50:16.422Z,94648
2017-11-05T05:55:45.338Z,94660
2017-11-05T06:01:13.519Z,94652
2017-11-05T06:06:41.659Z,94645
2017-11-05T06:12:09.899Z,94639
2017-11-05T06:17:38.046Z,94649
2017-11-05T06:29:20.924Z,94712
2017-11-05T06:34:51.036Z,94722
2017-11-05T06:40:26.771Z,94704
2017-11-05T06:45:54.991Z,94711
2017-11-05T06:51:23.197Z,94726
2017-11-05T06:56:52.061Z,94712
2017-11-05T07:02:22.253Z,94699
2017-11-05T07:07:50.422Z,94697
2017-11-05T07:13:36.895Z,94698
2017-11-05T07:19:05.071Z,94704
2017-11-05T07:24:34.025Z,94703
2017-11-05T07:30:03.217Z,94703
2017-11-05T07:35:31.361Z,94713
2017-11-05T07:40:59.504Z,94719
2017-11-05T07:46:29.375Z,94684
2017-11-05T07:51:57.562Z,94685
2017-11-05T07:57:25.712Z,94703
2017-11-05T08:02:53.893Z,94702
2017-11-05T08:08:22.029Z,94701
2017-11-05T08:13:50.150Z,94710
2017-11-05T08:19:19.132Z,94703
2017-11-05T08:24:47.754Z,94691
2017-11-05T08:30:15.894Z,94694
2017-11-05T08:35:44.047Z,94693
2017-11-05T08:41:12.205Z,94683
2017-11-05T08:46:41.778Z,94699
2017-11-05T08:52:11.074Z,94688
2017-11-05T08:57:40.220Z,94684
2017-11-05T09:03:16.278Z,94692
2017-11-05T09:08:55.370Z,94679
2017-11-05T09:14:23.511Z,94670
2017-11-05T09:19:53.592Z,94671
2017-11-05T09:25:36.057Z,94671
2017-11-05T09:31:32.633Z,94673
2017-11-05T09:37:01.573Z,94688
2017-11-05T09:42:34.763Z,94682
2017-11-05T09:48:02.926Z,94692
2017-11-05T09:53:31.869Z,94697
2017-11-05T09:59:02.758Z,94696
2017-11-05T10:04:49.717Z,94711
2017-11-05T10:10:17.925Z,94707
2017-11-05T10:15:46.876Z,94707
2017-11-05T10:21:18.893Z,94705
2017-11-05T10:26:47.835Z,94699
2017-11-05T10:32:15.995Z,94714
2017-11-05T10:37:57.358Z,94726
2017-11-05T10:43:25.540Z,94725
2017-11-05T10:48:53.686Z,94702
2017-11-05T10:54:21.853Z,94714
2017-11-05T10:59:50.016Z,94708
2017-11-05T11:05:21.464Z,94698
2017-11-05T11:10:49.642Z,94683
2017-11-05T11:16:17.814Z,94671
2017-11-05T11:21:45.958Z,94688
2017-11-05T11:27:14.132Z,94708
2017-11-05T11:32:43.040Z,94693
2017-11-05T11:38:11.212Z,94685
2017-11-05T11:50:22.408Z,94667
2017-11-05T11:55:50.645Z,94662
2017-11-05T12:01:36.045Z,94664
2017-11-05T12:07:04.229Z,94665
2017-11-05T12:12:33.314Z,94669
2017-11-05T12:18:07.080Z,94678
2017-11-05T12:23:35.232Z,94673
2017-11-05T12:29:03.437Z,94671
2017-11-05T12:34:47.474Z,94690
2017-11-05T12:40:17.347Z,94689
2017-11-05T12:45:46.287Z,94692
2017-11-05T12:57:02.175Z,94694
2017-11-05T13:02:32.032Z,94692
2017-11-05T13:08:01.126Z,94692
2017-11-05T13:13:29.327Z,94714
2017-11-05T13:18:57.613Z,94729
2017-11-05T13:24:25.874Z,94748
2017-11-05T13:29:54.312Z,94763
2017-11-05T13:35:22.871Z,94777
2017-11-05T13:40:51.894Z,94803
2017-11-05T13:46:20.251Z,94812
2017-11-05T13:51:59.764Z,94823
2017-11-05T13:57:28.701Z,94854
2017-11-05T14:02:57.839Z,94861
2017-11-05T14:08:29.358Z,94862
2017-11-05T14:13:57.649Z,94877
2017-11-05T14:19:31.523Z,94888
2017-11-05T14:25:07.099Z,94896
2017-11-05T14:30:35.418Z,94924
2017-11-05T14:36:07.444Z,94954
2017-11-05T14:41:36.368Z,94952
2017-11-05T14:47:12.277Z,94972
2017-11-05T14:52:41.184Z,95006
2017-11-05T14:58:10.247Z,95006
2017-11-05T15:03:38.451Z,95023
2017-11-05T15:09:07.397Z,95036
2017-11-05T15:14:35.583Z,95062
2017-11-05T15:20:08.809Z,95065
2017-11-05T15:25:44.948Z,95100
2017-11-05T15:31:13.422Z,95090
2017-11-05T15:37:01.772Z,95092
2017-11-05T15:42:29.979Z,95110
2017-11-05T15:48:04.300Z,95128
2017-11-05T15:53:32.755Z,95132
2017-11-05T15:59:02.171Z,95137
2017-11-05T16:04:52.244Z,95142
2017-11-05T16:10:20.746Z,95156
2017-11-05T16:15:48.896Z,95159
2017-11-05T16:21:17.727Z,95176
2017-11-05T16:26:50.380Z,95178
2017-11-05T16:32:18.504Z,95195
2017-11-05T16:37:46.679Z,95202
2017-11-05T16:43:14.918Z,95212
2017-11-05T16:48:44.062Z,95204
2017-11-05T16:54:12.208Z,95210
2017-11-05T16:59:40.365Z,95221
2017-11-05T17:05:08.770Z,95228
2017-11-05T17:10:36.957Z,95229
2017-11-05T17:16:05.239Z,95233
2017-11-05T17:21:36.962Z,95226
2017-11-05T17:27:06.096Z,95240
2017-11-05T17:32:34.255Z,95231
2017-11-05T17:38:02.386Z,95232
2017-11-05T17:43:30.528Z,95243
2017-11-05T17:48:59.547Z,95251
2017-11-05T17:54:30.777Z,95261
2017-11-05T17:59:58.903Z,95256
2017-11-05T18:05:27.176Z,95265
2017-11-05T18:10:55.298Z,95272
2017-11-05T18:16:30.309Z,95269
2017-11-05T18:21:59.225Z,95269
2017-11-05T18:27:40.490Z,95278
2017-11-05T18:33:08.671Z,95284
2017-11-05T18:38:36.816Z,95267
2017-11-05T18:44:04.965Z,95287
2017-11-05T18:49:34.055Z,95286
2017-11-05T18:55:05.897Z,95293
2017-11-05T19:00:34.110Z,95292
2017-11-05T19:06:03.283Z,95293
2017-11-05T19:11:31.484Z,95298
2017-11-05T19:16:59.826Z,95306
2017-11-05T19:22:38.007Z,95311
2017-11-05T19:28:06.158Z,95307
2017-11-05T19:33:35.078Z,95303
2017-11-05T19:39:03.228Z,95307
2017-11-05T19:44:31.431Z,95293
2017-11-05T19:50:00.351Z,95304
2017-11-05T19:55:31.768Z,95309
2017-11-05T20:01:00.686Z,95313
2017-11-05T20:06:29.815Z,95323
2017-11-05T20:11:58.021Z,95329
2017-11-05T20:17:33.781Z,95334
2017-11-05T20:23:02.013Z,95335
2017-11-05T20:28:30.161Z,95343
2017-11-05T20:33:58.363Z,95347
2017-11-05T20:39:32.661Z,95351
2017-11-05T20:45:04.828Z,95366
2017-11-05T20:50:33.952Z,95371
2017-11-05T20:56:02.872Z,95380
2017-11-05T21:01:56.768Z,95374
2017-11-05T21:07:24.958Z,95383
2017-11-05T21:12:53.108Z,95368
2017-11-05T21:18:36.316Z,95366
2017-11-05T21:24:04.478Z,95369
2017-11-05T21:29:39.813Z,95364
2017-11-05T21:35:07.988Z,95367
2017-11-05T21:40:36.208Z,95355
2017-11-05T21:46:04.362Z,95367
2017-11-05T21:51:36.824Z,95369
2017-11-05T21:57:09.031Z,95374
2017-11-05T22:02:38.309Z,95361
2017-11-05T22:08:10.000Z,95356
2017-11-05T22:13:38.235Z,95361
2017-11-05T22:19:06.367Z,95368
2017-11-05T22:24:34.560Z,95361
2017-11-05T22:30:02.717Z,95376
2017-11-05T22:35:30.864Z,95388
2017-11-05T22:41:00.412Z,95395
2017-11-05T22:46:46.001Z,95395
2017-11-05T22:52:14.141Z,95385
2017-11-05T22:57:44.273Z,95372
2017-11-05T23:03:13.616Z,95377
2017-11-05T23:08:45.378Z,95383
2017-11-05T23:14:13.574Z,95396
2017-11-05T23:19:58.867Z,95401
2017-11-05T23:25:33.196Z,95398
2017-11-05T23:31:01.353Z,95405
2017-11-05T23:36:29.499Z,95399
2017-11-05T23:41:57.716Z,95412
2017-11-05T23:47:32.329Z,95406
2017-11-05T23:53:00.485Z,95404
2017-11-05T23:58:29.788Z,95418
